sensor_id;sensor_type;location;lat;lon;timestamp;pressure;altitude;pressure_sealevel;temperature;humidity
22580;BME280;11456;47.030;15.396;2023-02-10T00:02:01;99406.47;;;-5.49;75.88
22580;BME280;11456;47.030;15.396;2023-02-10T00:04:28;99396.78;;;-5.38;76.90
22580;BME280;11456;47.030;15.396;2023-02-10T00:06:54;99399.25;;;-5.23;76.37
22580;BME280;11456;47.030;15.396;2023-02-10T00:09:21;99401.16;;;-5.39;76.57
22580;BME280;11456;47.030;15.396;2023-02-10T00:11:47;99395.94;;;-5.45;76.22
22580;BME280;11456;47.030;15.396;2023-02-10T00:14:23;99401.16;;;-5.39;75.43
22580;BME280;11456;47.030;15.396;2023-02-10T00:16:50;99402.19;;;-5.62;76.05
22580;BME280;11456;47.030;15.396;2023-02-10T00:19:17;99397.00;;;-5.70;76.34
22580;BME280;11456;47.030;15.396;2023-02-10T00:21:44;99399.69;;;-5.78;77.13
22580;BME280;11456;47.030;15.396;2023-02-10T00:24:10;99401.38;;;-5.72;76.53
22580;BME280;11456;47.030;15.396;2023-02-10T00:26:37;99391.72;;;-5.66;77.15
22580;BME280;11456;47.030;15.396;2023-02-10T00:29:03;99388.13;;;-5.52;76.15
22580;BME280;11456;47.030;15.396;2023-02-10T00:31:30;99388.94;;;-5.47;75.84
22580;BME280;11456;47.030;15.396;2023-02-10T00:33:57;99392.34;;;-5.36;76.46
22580;BME280;11456;47.030;15.396;2023-02-10T00:36:23;99395.16;;;-5.57;76.53
22580;BME280;11456;47.030;15.396;2023-02-10T00:38:50;99401.28;;;-5.60;76.12
22580;BME280;11456;47.030;15.396;2023-02-10T00:41:19;99400.47;;;-5.67;76.30
22580;BME280;11456;47.030;15.396;2023-02-10T00:43:46;99398.72;;;-5.64;75.63
22580;BME280;11456;47.030;15.396;2023-02-10T00:46:13;99400.47;;;-5.67;75.33
22580;BME280;11456;47.030;15.396;2023-02-10T00:48:41;99393.66;;;-5.92;77.18
22580;BME280;11456;47.030;15.396;2023-02-10T00:51:09;99396.09;;;-5.68;76.84
22580;BME280;11456;47.030;15.396;2023-02-10T00:53:36;99396.94;;;-5.62;76.31
22580;BME280;11456;47.030;15.396;2023-02-10T00:56:02;99392.63;;;-5.76;76.02
22580;BME280;11456;47.030;15.396;2023-02-10T00:58:29;99394.50;;;-5.88;77.51
22580;BME280;11456;47.030;15.396;2023-02-10T01:00:56;99396.25;;;-5.87;76.58
22580;BME280;11456;47.030;15.396;2023-02-10T01:03:23;99397.94;;;-5.79;76.17
22580;BME280;11456;47.030;15.396;2023-02-10T01:05:49;99393.72;;;-5.98;77.09
22580;BME280;11456;47.030;15.396;2023-02-10T01:08:17;99388.50;;;-6.07;77.68
22580;BME280;11456;47.030;15.396;2023-02-10T01:10:43;99391.97;;;-5.99;77.51
22580;BME280;11456;47.030;15.396;2023-02-10T01:13:11;99388.53;;;-6.10;77.97
22580;BME280;11456;47.030;15.396;2023-02-10T01:15:45;99389.22;;;-5.85;78.00
22580;BME280;11456;47.030;15.396;2023-02-10T01:18:13;99390.06;;;-5.79;77.55
22580;BME280;11456;47.030;15.396;2023-02-10T01:20:40;99388.34;;;-5.86;77.68
22580;BME280;11456;47.030;15.396;2023-02-10T01:23:07;99390.00;;;-5.76;76.98
22580;BME280;11456;47.030;15.396;2023-02-10T01:25:34;99400.47;;;-5.70;76.35
22580;BME280;11456;47.030;15.396;2023-02-10T01:28:01;99401.53;;;-5.93;76.97
22580;BME280;11456;47.030;15.396;2023-02-10T01:30:27;99395.47;;;-6.00;77.59
22580;BME280;11456;47.030;15.396;2023-02-10T01:32:54;99387.66;;;-6.12;78.44
22580;BME280;11456;47.030;15.396;2023-02-10T01:35:21;99391.19;;;-6.21;78.26
22580;BME280;11456;47.030;15.396;2023-02-10T01:37:48;99383.25;;;-6.04;77.72
22580;BME280;11456;47.030;15.396;2023-02-10T01:40:16;99384.13;;;-6.05;78.59
22580;BME280;11456;47.030;15.396;2023-02-10T01:42:42;99386.66;;;-5.90;77.99
22580;BME280;11456;47.030;15.396;2023-02-10T01:47:42;99391.00;;;-5.87;77.75
22580;BME280;11456;47.030;15.396;2023-02-10T01:50:09;99395.47;;;-5.97;76.97
22580;BME280;11456;47.030;15.396;2023-02-10T01:52:36;99389.41;;;-6.11;78.25
22580;BME280;11456;47.030;15.396;2023-02-10T01:55:05;99375.22;;;-5.84;78.20
22580;BME280;11456;47.030;15.396;2023-02-10T01:57:33;99385.03;;;-6.11;78.27
22580;BME280;11456;47.030;15.396;2023-02-10T02:00:00;99384.97;;;-6.00;78.89
22580;BME280;11456;47.030;15.396;2023-02-10T02:02:37;99385.81;;;-5.95;77.82
22580;BME280;11456;47.030;15.396;2023-02-10T02:05:05;99380.69;;;-6.15;78.43
22580;BME280;11456;47.030;15.396;2023-02-10T02:07:32;99383.28;;;-6.10;77.61
22580;BME280;11456;47.030;15.396;2023-02-10T02:10:01;99377.97;;;-6.01;78.16
22580;BME280;11456;47.030;15.396;2023-02-10T02:15:04;99374.09;;;-5.50;75.69
22580;BME280;11456;47.030;15.396;2023-02-10T02:17:38;99371.78;;;-5.88;76.55
22580;BME280;11456;47.030;15.396;2023-02-10T02:20:13;99376.25;;;-6.05;78.63
22580;BME280;11456;47.030;15.396;2023-02-10T02:23:06;99366.59;;;-5.97;78.52
22580;BME280;11456;47.030;15.396;2023-02-10T02:33:50;99362.38;;;-6.27;78.35
22580;BME280;11456;47.030;15.396;2023-02-10T02:36:20;99358.06;;;-6.40;78.99
22580;BME280;11456;47.030;15.396;2023-02-10T02:38:50;99358.94;;;-6.39;79.76
22580;BME280;11456;47.030;15.396;2023-02-10T02:41:23;99367.56;;;-6.10;79.46
22580;BME280;11456;47.030;15.396;2023-02-10T02:43:51;99364.84;;;-5.99;79.38
22580;BME280;11456;47.030;15.396;2023-02-10T02:52:05;99366.84;;;-6.45;78.64
22580;BME280;11456;47.030;15.396;2023-02-10T02:54:41;99371.34;;;-6.73;80.18
22580;BME280;11456;47.030;15.396;2023-02-10T03:00:07;99360.69;;;-6.35;78.61
22580;BME280;11456;47.030;15.396;2023-02-10T03:02:35;99365.13;;;-6.51;79.21
22580;BME280;11456;47.030;15.396;2023-02-10T03:05:03;99364.22;;;-6.45;78.93
22580;BME280;11456;47.030;15.396;2023-02-10T03:07:30;99364.25;;;-6.52;79.12
22580;BME280;11456;47.030;15.396;2023-02-10T03:09:56;99364.13;;;-6.21;78.27
22580;BME280;11456;47.030;15.396;2023-02-10T03:12:23;99361.53;;;-6.32;78.75
22580;BME280;11456;47.030;15.396;2023-02-10T03:14:49;99363.25;;;-6.22;78.73
22580;BME280;11456;47.030;15.396;2023-02-10T03:17:16;99361.59;;;-6.41;78.87
22580;BME280;11456;47.030;15.396;2023-02-10T03:19:42;99365.97;;;-6.41;78.64
22580;BME280;11456;47.030;15.396;2023-02-10T03:22:09;99365.13;;;-6.46;79.00
22580;BME280;11456;47.030;15.396;2023-02-10T03:24:35;99373.00;;;-6.54;79.15
22580;BME280;11456;47.030;15.396;2023-02-10T03:27:03;99371.13;;;-6.26;78.95
22580;BME280;11456;47.030;15.396;2023-02-10T03:29:31;99386.78;;;-6.08;78.07
22580;BME280;11456;47.030;15.396;2023-02-10T03:31:58;99379.78;;;-6.12;78.69
22580;BME280;11456;47.030;15.396;2023-02-10T03:34:28;99376.41;;;-6.35;78.53
22580;BME280;11456;47.030;15.396;2023-02-10T03:36:54;99392.16;;;-6.38;79.11
22580;BME280;11456;47.030;15.396;2023-02-10T03:39:21;99392.31;;;-6.90;80.86
22580;BME280;11456;47.030;15.396;2023-02-10T03:41:47;99395.75;;;-6.70;80.15
22580;BME280;11456;47.030;15.396;2023-02-10T03:44:13;99400.13;;;-6.66;79.78
22580;BME280;11456;47.030;15.396;2023-02-10T03:46:40;99394.94;;;-6.85;80.34
22580;BME280;11456;47.030;15.396;2023-02-10T03:49:06;99394.03;;;-6.81;80.79
22580;BME280;11456;47.030;15.396;2023-02-10T03:51:33;99388.72;;;-6.56;80.22
22580;BME280;11456;47.030;15.396;2023-02-10T03:53:59;99387.00;;;-6.60;80.69
22580;BME280;11456;47.030;15.396;2023-02-10T03:56:26;99400.97;;;-6.55;80.17
22580;BME280;11456;47.030;15.396;2023-02-10T03:58:52;99401.84;;;-6.65;79.76
22580;BME280;11456;47.030;15.396;2023-02-10T04:01:19;99406.22;;;-6.61;79.68
22580;BME280;11456;47.030;15.396;2023-02-10T04:03:45;99404.50;;;-6.77;79.94
22580;BME280;11456;47.030;15.396;2023-02-10T04:06:12;99405.16;;;-6.11;77.35
22580;BME280;11456;47.030;15.396;2023-02-10T04:08:39;99407.94;;;-6.49;78.23
22580;BME280;11456;47.030;15.396;2023-02-10T04:11:06;99418.41;;;-6.51;78.87
22580;BME280;11456;47.030;15.396;2023-02-10T04:13:34;99413.22;;;-6.78;79.86
22580;BME280;11456;47.030;15.396;2023-02-10T04:18:28;99405.41;;;-6.89;79.63
22580;BME280;11456;47.030;15.396;2023-02-10T04:20:54;99415.00;;;-6.80;79.98
22580;BME280;11456;47.030;15.396;2023-02-10T04:23:21;99407.16;;;-6.88;80.26
22580;BME280;11456;47.030;15.396;2023-02-10T04:25:47;99406.28;;;-6.82;80.57
22580;BME280;11456;47.030;15.396;2023-02-10T04:28:14;99401.03;;;-6.91;80.63
22580;BME280;11456;47.030;15.396;2023-02-10T04:30:41;99401.06;;;-7.09;81.05
22580;BME280;11456;47.030;15.396;2023-02-10T04:33:07;99388.88;;;-7.07;82.52
22580;BME280;11456;47.030;15.396;2023-02-10T04:35:34;99394.94;;;-6.85;81.03
22580;BME280;11456;47.030;15.396;2023-02-10T04:38:00;99395.78;;;-6.76;80.65
22580;BME280;11456;47.030;15.396;2023-02-10T04:40:29;99388.81;;;-6.89;80.72
22580;BME280;11456;47.030;15.396;2023-02-10T04:42:56;99383.59;;;-6.95;80.85
22580;BME280;11456;47.030;15.396;2023-02-10T04:45:22;99386.25;;;-6.98;80.78
22580;BME280;11456;47.030;15.396;2023-02-10T04:47:49;99394.09;;;-6.98;80.30
22580;BME280;11456;47.030;15.396;2023-02-10T04:50:15;99388.81;;;-6.89;80.27
22580;BME280;11456;47.030;15.396;2023-02-10T04:52:42;99397.50;;;-6.66;80.81
22580;BME280;11456;47.030;15.396;2023-02-10T04:55:08;99397.53;;;-6.75;80.19
22580;BME280;11456;47.030;15.396;2023-02-10T04:57:35;99402.81;;;-6.92;80.20
22580;BME280;11456;47.030;15.396;2023-02-10T05:00:02;99408.09;;;-7.23;81.33
22580;BME280;11456;47.030;15.396;2023-02-10T05:02:28;99407.19;;;-6.98;82.09
22580;BME280;11456;47.030;15.396;2023-02-10T05:04:55;99415.91;;;-6.92;81.42
22580;BME280;11456;47.030;15.396;2023-02-10T05:07:22;99411.50;;;-6.83;81.22
22580;BME280;11456;47.030;15.396;2023-02-10T05:09:48;99422.03;;;-7.00;81.33
22580;BME280;11456;47.030;15.396;2023-02-10T05:12:16;99422.00;;;-6.91;80.75
22580;BME280;11456;47.030;15.396;2023-02-10T05:14:43;99422.06;;;-7.24;81.36
22580;BME280;11456;47.030;15.396;2023-02-10T05:17:09;99423.78;;;-7.05;82.29
22580;BME280;11456;47.030;15.396;2023-02-10T05:19:38;99415.06;;;-7.04;80.72
22580;BME280;11456;47.030;15.396;2023-02-10T05:22:04;99415.03;;;-7.22;81.36
22580;BME280;11456;47.030;15.396;2023-02-10T05:24:31;99427.25;;;-7.23;81.19
22580;BME280;11456;47.030;15.396;2023-02-10T05:26:57;99422.00;;;-6.94;81.18
22580;BME280;11456;47.030;15.396;2023-02-10T05:29:24;99421.09;;;-6.75;80.79
22580;BME280;11456;47.030;15.396;2023-02-10T05:31:50;99428.09;;;-6.83;79.68
22580;BME280;11456;47.030;15.396;2023-02-10T05:34:17;99435.13;;;-6.99;80.96
22580;BME280;11456;47.030;15.396;2023-02-10T05:36:43;99430.75;;;-7.29;81.93
22580;BME280;11456;47.030;15.396;2023-02-10T05:39:10;99428.13;;;-7.16;81.97
22580;BME280;11456;47.030;15.396;2023-02-10T05:41:49;99423.75;;;-7.02;81.31
22580;BME280;11456;47.030;15.396;2023-02-10T05:44:16;99431.63;;;-7.30;81.27
22580;BME280;11456;47.030;15.396;2023-02-10T05:46:43;99441.25;;;-7.38;81.44
22580;BME280;11456;47.030;15.396;2023-02-10T05:49:09;99437.72;;;-7.09;80.72
22580;BME280;11456;47.030;15.396;2023-02-10T05:51:36;99434.25;;;-7.16;80.77
22580;BME280;11456;47.030;15.396;2023-02-10T05:54:02;99429.03;;;-7.05;81.65
22580;BME280;11456;47.030;15.396;2023-02-10T05:56:29;99430.75;;;-7.07;81.04
22580;BME280;11456;47.030;15.396;2023-02-10T05:58:56;99443.88;;;-7.38;81.51
22580;BME280;11456;47.030;15.396;2023-02-10T06:01:22;99438.59;;;-7.16;81.14
22580;BME280;11456;47.030;15.396;2023-02-10T06:03:49;99435.13;;;-7.12;80.17
22580;BME280;11456;47.030;15.396;2023-02-10T06:06:15;99447.31;;;-7.10;81.16
22580;BME280;11456;47.030;15.396;2023-02-10T06:08:42;99458.69;;;-7.34;80.29
22580;BME280;11456;47.030;15.396;2023-02-10T06:11:08;99447.34;;;-7.13;80.93
22580;BME280;11456;47.030;15.396;2023-02-10T06:13:36;99445.59;;;-7.21;80.82
22580;BME280;11456;47.030;15.396;2023-02-10T06:16:03;99442.97;;;-7.06;80.33
22580;BME280;11456;47.030;15.396;2023-02-10T06:18:30;99448.22;;;-7.26;80.23
22580;BME280;11456;47.030;15.396;2023-02-10T06:20:57;99446.47;;;-7.29;81.83
22580;BME280;11456;47.030;15.396;2023-02-10T06:23:24;99455.19;;;-7.20;81.73
22580;BME280;11456;47.030;15.396;2023-02-10T06:25:51;99456.09;;;-7.05;81.54
22580;BME280;11456;47.030;15.396;2023-02-10T06:28:21;99453.44;;;-6.94;80.46
22580;BME280;11456;47.030;15.396;2023-02-10T06:30:48;99450.81;;;-6.97;80.43
22580;BME280;11456;47.030;15.396;2023-02-10T06:33:15;99462.19;;;-6.92;80.96
22580;BME280;11456;47.030;15.396;2023-02-10T06:35:42;99466.28;;;-5.95;79.93
22580;BME280;11456;47.030;15.396;2023-02-10T06:38:08;99470.50;;;-5.72;76.82
22580;BME280;11456;47.030;15.396;2023-02-10T06:40:35;99486.16;;;-5.59;75.54
22580;BME280;11456;47.030;15.396;2023-02-10T06:43:01;99489.75;;;-5.80;76.00
22580;BME280;11456;47.030;15.396;2023-02-10T06:45:28;99480.94;;;-5.66;76.56
22580;BME280;11456;47.030;15.396;2023-02-10T06:47:54;99490.34;;;-5.30;75.05
22580;BME280;11456;47.030;15.396;2023-02-10T06:50:21;99484.50;;;-5.82;75.85
22580;BME280;11456;47.030;15.396;2023-02-10T06:52:48;99493.41;;;-6.04;78.69
22580;BME280;11456;47.030;15.396;2023-02-10T06:55:14;99486.28;;;-5.84;79.90
22580;BME280;11456;47.030;15.396;2023-02-10T06:57:41;99489.63;;;-5.54;78.88
22580;BME280;11456;47.030;15.396;2023-02-10T07:00:09;99493.09;;;-5.46;79.92
22580;BME280;11456;47.030;15.396;2023-02-10T07:02:36;99490.09;;;-4.99;78.85
22580;BME280;11456;47.030;15.396;2023-02-10T07:05:04;99490.28;;;-4.26;79.27
22580;BME280;11456;47.030;15.396;2023-02-10T07:07:33;99501.31;;;-3.93;77.16
22580;BME280;11456;47.030;15.396;2023-02-10T07:09:59;99494.25;;;-3.90;74.41
22580;BME280;11456;47.030;15.396;2023-02-10T07:12:26;99499.78;;;-3.41;73.29
22580;BME280;11456;47.030;15.396;2023-02-10T07:14:52;99503.53;;;-2.99;72.61
22580;BME280;11456;47.030;15.396;2023-02-10T07:17:19;99506.00;;;-2.37;70.27
22580;BME280;11456;47.030;15.396;2023-02-10T07:19:46;99511.44;;;-1.99;68.25
22580;BME280;11456;47.030;15.396;2023-02-10T07:22:12;99502.94;;;-1.70;67.76
22580;BME280;11456;47.030;15.396;2023-02-10T07:24:39;99509.25;;;-0.97;66.56
22580;BME280;11456;47.030;15.396;2023-02-10T07:27:05;99507.31;;;-0.91;61.44
22580;BME280;11456;47.030;15.396;2023-02-10T07:29:32;99515.41;;;-0.61;62.15
22580;BME280;11456;47.030;15.396;2023-02-10T07:31:58;99512.72;;;0.07;60.75
22580;BME280;11456;47.030;15.396;2023-02-10T07:34:25;99515.06;;;0.50;58.30
22580;BME280;11456;47.030;15.396;2023-02-10T07:36:52;99512.78;;;0.36;57.32
22580;BME280;11456;47.030;15.396;2023-02-10T07:39:23;99510.25;;;0.00;59.38
22580;BME280;11456;47.030;15.396;2023-02-10T07:41:50;99503.94;;;0.06;58.49
22580;BME280;11456;47.030;15.396;2023-02-10T07:44:19;99507.59;;;-0.32;59.27
22580;BME280;11456;47.030;15.396;2023-02-10T07:46:52;99510.00;;;0.10;59.68
22580;BME280;11456;47.030;15.396;2023-02-10T07:49:18;99505.09;;;0.27;57.90
22580;BME280;11456;47.030;15.396;2023-02-10T07:51:45;99504.47;;;0.19;57.92
22580;BME280;11456;47.030;15.396;2023-02-10T07:54:12;99511.41;;;1.37;55.11
22580;BME280;11456;47.030;15.396;2023-02-10T07:56:38;99517.41;;;1.95;54.28
22580;BME280;11456;47.030;15.396;2023-02-10T07:59:04;99524.72;;;2.38;51.45
22580;BME280;11456;47.030;15.396;2023-02-10T08:01:33;99521.63;;;1.76;50.45
22580;BME280;11456;47.030;15.396;2023-02-10T08:04:02;99520.72;;;0.37;55.60
22580;BME280;11456;47.030;15.396;2023-02-10T08:06:29;99518.69;;;0.46;55.47
22580;BME280;11456;47.030;15.396;2023-02-10T08:08:56;99534.75;;;0.09;57.38
22580;BME280;11456;47.030;15.396;2023-02-10T08:11:22;99531.09;;;0.74;56.40
22580;BME280;11456;47.030;15.396;2023-02-10T08:13:49;99529.53;;;0.67;56.48
22580;BME280;11456;47.030;15.396;2023-02-10T08:16:15;99531.88;;;0.78;55.78
22580;BME280;11456;47.030;15.396;2023-02-10T08:18:42;99532.81;;;0.46;57.25
22580;BME280;11456;47.030;15.396;2023-02-10T08:21:09;99529.56;;;0.36;57.36
22580;BME280;11456;47.030;15.396;2023-02-10T08:23:36;99525.78;;;0.74;57.56
22580;BME280;11456;47.030;15.396;2023-02-10T08:26:04;99528.63;;;0.68;56.95
22580;BME280;11456;47.030;15.396;2023-02-10T08:28:30;99523.31;;;0.98;57.41
22580;BME280;11456;47.030;15.396;2023-02-10T08:31:00;99517.81;;;1.32;55.77
22580;BME280;11456;47.030;15.396;2023-02-10T08:33:27;99509.22;;;0.96;58.21
22580;BME280;11456;47.030;15.396;2023-02-10T08:36:07;99517.31;;;0.63;56.27
22580;BME280;11456;47.030;15.396;2023-02-10T08:38:34;99516.28;;;2.02;55.46
22580;BME280;11456;47.030;15.396;2023-02-10T08:41:01;99518.66;;;0.47;56.41
22580;BME280;11456;47.030;15.396;2023-02-10T08:43:28;99512.41;;;1.86;54.31
22580;BME280;11456;47.030;15.396;2023-02-10T08:45:58;99519.75;;;2.99;52.57
22580;BME280;11456;47.030;15.396;2023-02-10T08:48:26;99523.28;;;2.99;52.61
22580;BME280;11456;47.030;15.396;2023-02-10T08:50:53;99520.97;;;3.13;50.07
22580;BME280;11456;47.030;15.396;2023-02-10T08:53:20;99519.34;;;3.31;50.54
22580;BME280;11456;47.030;15.396;2023-02-10T08:55:56;99531.81;;;3.07;49.55
22580;BME280;11456;47.030;15.396;2023-02-10T08:58:26;99525.16;;;3.41;48.78
22580;BME280;11456;47.030;15.396;2023-02-10T09:00:52;99530.19;;;2.81;49.60
22580;BME280;11456;47.030;15.396;2023-02-10T09:03:19;99531.13;;;2.32;50.66
22580;BME280;11456;47.030;15.396;2023-02-10T09:05:46;99533.25;;;2.71;51.33
22580;BME280;11456;47.030;15.396;2023-02-10T09:08:15;99539.06;;;1.84;52.31
22580;BME280;11456;47.030;15.396;2023-02-10T09:10:42;99532.50;;;2.19;51.11
22580;BME280;11456;47.030;15.396;2023-02-10T09:13:09;99538.63;;;1.96;52.12
22580;BME280;11456;47.030;15.396;2023-02-10T09:15:36;99532.31;;;2.49;48.67
22580;BME280;11456;47.030;15.396;2023-02-10T09:18:03;99540.03;;;3.01;49.62
22580;BME280;11456;47.030;15.396;2023-02-10T09:20:30;99540.63;;;2.63;48.50
22580;BME280;11456;47.030;15.396;2023-02-10T09:22:56;99544.75;;;2.71;49.26
22580;BME280;11456;47.030;15.396;2023-02-10T09:25:23;99541.63;;;2.83;48.18
22580;BME280;11456;47.030;15.396;2023-02-10T09:27:51;99547.84;;;3.51;48.80
22580;BME280;11456;47.030;15.396;2023-02-10T09:30:18;99550.47;;;4.35;46.24
22580;BME280;11456;47.030;15.396;2023-02-10T09:32:44;99550.06;;;4.44;45.26
22580;BME280;11456;47.030;15.396;2023-02-10T09:35:11;99548.47;;;4.20;45.20
22580;BME280;11456;47.030;15.396;2023-02-10T09:37:37;99541.50;;;3.75;47.39
22580;BME280;11456;47.030;15.396;2023-02-10T09:40:04;99543.75;;;3.64;47.21
22580;BME280;11456;47.030;15.396;2023-02-10T09:45:09;99545.41;;;4.29;45.59
22580;BME280;11456;47.030;15.396;2023-02-10T09:47:47;99541.66;;;4.13;45.85
22580;BME280;11456;47.030;15.396;2023-02-10T09:55:38;99550.66;;;4.90;45.28
22580;BME280;11456;47.030;15.396;2023-02-10T10:01:53;99542.59;;;5.10;44.44
22580;BME280;11456;47.030;15.396;2023-02-10T10:03:55;99537.78;;;5.35;43.44
22580;BME280;11456;47.030;15.396;2023-02-10T10:06:30;99531.00;;;5.47;43.74
22580;BME280;11456;47.030;15.396;2023-02-10T10:13:50;99529.88;;;5.15;42.75
22580;BME280;11456;47.030;15.396;2023-02-10T10:22:00;99525.28;;;5.54;43.60
22580;BME280;11456;47.030;15.396;2023-02-10T10:26:58;99523.22;;;5.95;42.17
22580;BME280;11456;47.030;15.396;2023-02-10T10:29:32;99523.75;;;6.36;41.38
22580;BME280;11456;47.030;15.396;2023-02-10T10:32:08;99515.22;;;5.77;42.16
22580;BME280;11456;47.030;15.396;2023-02-10T10:34:39;99515.41;;;6.42;41.24
22580;BME280;11456;47.030;15.396;2023-02-10T10:37:11;99509.31;;;6.06;41.32
22580;BME280;11456;47.030;15.396;2023-02-10T10:39:40;99513.03;;;5.85;42.48
22580;BME280;11456;47.030;15.396;2023-02-10T10:42:16;99498.25;;;5.60;42.80
22580;BME280;11456;47.030;15.396;2023-02-10T10:44:45;99497.78;;;6.21;41.99
22580;BME280;11456;47.030;15.396;2023-02-10T10:47:56;99493.41;;;7.17;40.28
22580;BME280;11456;47.030;15.396;2023-02-10T10:50:03;99492.25;;;6.41;40.42
22580;BME280;11456;47.030;15.396;2023-02-10T10:52:34;99488.94;;;6.54;41.81
22580;BME280;11456;47.030;15.396;2023-02-10T10:55:03;99485.03;;;7.23;40.45
22580;BME280;11456;47.030;15.396;2023-02-10T10:57:29;99481.94;;;7.00;40.51
22580;BME280;11456;47.030;15.396;2023-02-10T11:00:30;99480.88;;;6.87;40.87
22580;BME280;11456;47.030;15.396;2023-02-10T11:05:18;99482.59;;;7.66;38.63
22580;BME280;11456;47.030;15.396;2023-02-10T11:07:50;99485.97;;;7.54;39.34
22580;BME280;11456;47.030;15.396;2023-02-10T11:10:20;99470.84;;;7.53;39.86
22580;BME280;11456;47.030;15.396;2023-02-10T11:12:48;99472.25;;;8.04;39.16
22580;BME280;11456;47.030;15.396;2023-02-10T11:15:29;99470.53;;;8.47;38.58
22580;BME280;11456;47.030;15.396;2023-02-10T11:17:57;99459.78;;;8.03;38.65
22580;BME280;11456;47.030;15.396;2023-02-10T11:20:30;99453.88;;;8.70;38.17
22580;BME280;11456;47.030;15.396;2023-02-10T11:22:58;99447.03;;;8.36;38.40
22580;BME280;11456;47.030;15.396;2023-02-10T11:27:52;99441.28;;;8.42;37.86
22580;BME280;11456;47.030;15.396;2023-02-10T11:30:24;99439.00;;;8.06;38.65
22580;BME280;11456;47.030;15.396;2023-02-10T11:32:51;99439.84;;;8.07;38.11
22580;BME280;11456;47.030;15.396;2023-02-10T11:35:17;99441.41;;;7.67;37.75
22580;BME280;11456;47.030;15.396;2023-02-10T11:37:44;99437.34;;;7.90;37.72
22580;BME280;11456;47.030;15.396;2023-02-10T11:40:19;99431.50;;;8.56;37.80
22580;BME280;11456;47.030;15.396;2023-02-10T11:42:48;99434.66;;;8.76;36.14
22580;BME280;11456;47.030;15.396;2023-02-10T11:45:16;99435.53;;;8.49;36.35
22580;BME280;11456;47.030;15.396;2023-02-10T11:47:44;99435.84;;;8.44;36.81
22580;BME280;11456;47.030;15.396;2023-02-10T11:52:46;99425.63;;;8.77;35.39
22580;BME280;11456;47.030;15.396;2023-02-10T11:55:14;99415.03;;;9.30;34.92
22580;BME280;11456;47.030;15.396;2023-02-10T11:57:56;99423.53;;;8.82;34.88
22580;BME280;11456;47.030;15.396;2023-02-10T12:00:49;99410.47;;;9.44;33.45
22580;BME280;11456;47.030;15.396;2023-02-10T12:08:49;99416.50;;;9.48;31.92
22580;BME280;11456;47.030;15.396;2023-02-10T12:19:29;99406.28;;;9.40;33.16
22580;BME280;11456;47.030;15.396;2023-02-10T12:24:36;99398.00;;;9.43;32.79
22580;BME280;11456;47.030;15.396;2023-02-10T12:40:02;99383.72;;;8.18;34.85
22580;BME280;11456;47.030;15.396;2023-02-10T12:50:16;99361.38;;;8.60;34.21
22580;BME280;11456;47.030;15.396;2023-02-10T12:52:58;99361.66;;;9.50;32.91
22580;BME280;11456;47.030;15.396;2023-02-10T12:55:33;99355.78;;;9.96;32.12
22580;BME280;11456;47.030;15.396;2023-02-10T12:58:12;99356.53;;;8.79;33.39
22580;BME280;11456;47.030;15.396;2023-02-10T13:00:41;99352.59;;;8.44;34.23
22580;BME280;11456;47.030;15.396;2023-02-10T13:05:50;99347.91;;;9.68;32.04
22580;BME280;11456;47.030;15.396;2023-02-10T13:08:32;99342.47;;;9.42;32.00
22580;BME280;11456;47.030;15.396;2023-02-10T13:11:10;99344.03;;;9.59;31.29
22580;BME280;11456;47.030;15.396;2023-02-10T13:13:41;99342.81;;;9.50;31.15
22580;BME280;11456;47.030;15.396;2023-02-10T13:16:15;99351.19;;;9.06;30.60
22580;BME280;11456;47.030;15.396;2023-02-10T13:18:49;99354.84;;;8.64;31.40
22580;BME280;11456;47.030;15.396;2023-02-10T13:21:19;99353.50;;;9.64;30.56
22580;BME280;11456;47.030;15.396;2023-02-10T13:23:49;99355.03;;;9.94;30.31
22580;BME280;11456;47.030;15.396;2023-02-10T13:26:23;99351.19;;;10.11;30.70
22580;BME280;11456;47.030;15.396;2023-02-10T13:28:58;99345.16;;;10.32;29.67
22580;BME280;11456;47.030;15.396;2023-02-10T13:34:18;99343.94;;;9.21;29.35
22580;BME280;11456;47.030;15.396;2023-02-10T13:39:31;99345.03;;;9.31;30.27
22580;BME280;11456;47.030;15.396;2023-02-10T13:44:34;99351.50;;;9.41;29.89
22580;BME280;11456;47.030;15.396;2023-02-10T13:49:36;99355.56;;;9.86;29.23
22580;BME280;11456;47.030;15.396;2023-02-10T13:52:17;99366.50;;;9.18;29.71
22580;BME280;11456;47.030;15.396;2023-02-10T13:54:52;99358.59;;;9.42;30.56
22580;BME280;11456;47.030;15.396;2023-02-10T13:57:29;99349.81;;;9.40;29.98
22580;BME280;11456;47.030;15.396;2023-02-10T14:02:43;99359.31;;;9.19;29.93
22580;BME280;11456;47.030;15.396;2023-02-10T14:05:22;99352.66;;;8.98;30.23
22580;BME280;11456;47.030;15.396;2023-02-10T14:07:48;99348.31;;;9.22;30.38
22580;BME280;11456;47.030;15.396;2023-02-10T14:12:56;99356.63;;;9.19;32.04
22580;BME280;11456;47.030;15.396;2023-02-10T14:15:52;99347.56;;;8.66;31.39
22580;BME280;11456;47.030;15.396;2023-02-10T14:18:24;99340.19;;;9.36;30.61
22580;BME280;11456;47.030;15.396;2023-02-10T14:20:55;99345.63;;;8.82;31.08
22580;BME280;11456;47.030;15.396;2023-02-10T14:23:23;99345.28;;;9.41;30.89
22580;BME280;11456;47.030;15.396;2023-02-10T14:25:54;99344.00;;;9.46;30.59
22580;BME280;11456;47.030;15.396;2023-02-10T14:28:22;99342.56;;;8.60;31.86
22580;BME280;11456;47.030;15.396;2023-02-10T14:31:04;99343.13;;;8.65;32.92
22580;BME280;11456;47.030;15.396;2023-02-10T14:33:33;99342.53;;;8.89;32.10
22580;BME280;11456;47.030;15.396;2023-02-10T14:36:02;99350.31;;;8.79;32.39
22580;BME280;11456;47.030;15.396;2023-02-10T14:38:30;99348.19;;;9.11;32.52
22580;BME280;11456;47.030;15.396;2023-02-10T14:40:58;99355.25;;;8.99;32.57
22580;BME280;11456;47.030;15.396;2023-02-10T14:43:40;99345.19;;;9.15;32.22
22580;BME280;11456;47.030;15.396;2023-02-10T14:46:07;99360.47;;;9.15;31.97
22580;BME280;11456;47.030;15.396;2023-02-10T14:48:37;99355.63;;;8.52;32.66
22580;BME280;11456;47.030;15.396;2023-02-10T14:51:07;99362.31;;;7.74;33.39
22580;BME280;11456;47.030;15.396;2023-02-10T14:53:42;99368.25;;;7.79;33.70
22580;BME280;11456;47.030;15.396;2023-02-10T14:56:28;99365.19;;;8.14;33.18